Time;durP1;ratioP1;P1;durP2;ratioP2;P2;SDS_P1;SDS_P2;PMS_P1;PMS_P2;Temp;Humidity;BMP_temperature;BMP_pressure;BME280_temperature;BME280_humidity;BME280_pressure;Samples;Min_cycle;Max_cycle;Signal;HPM_P1;HPM_P2
2023/05/17 00:03:55;;;;;;;4.37;3.60;;;;;;;;;;12669408;23;20446;-85
2023/05/17 00:08:57;;;;;;;4.00;3.60;;;;;;;;;;12667358;23;20528;-85
2023/05/17 00:14:01;;;;;;;5.20;3.85;;;;;;;;;;12667153;23;20375;-83
2023/05/17 00:19:03;;;;;;;4.57;3.58;;;;;;;;;;12667791;23;20438;-84
2023/05/17 00:24:06;;;;;;;4.43;3.70;;;;;;;;;;12669274;23;20375;-84
2023/05/17 00:29:10;;;;;;;5.93;3.23;;;;;;;;;;12670211;23;20465;-84
2023/05/17 00:34:12;;;;;;;4.05;3.60;;;;;;;;;;12670034;23;20375;-85
2023/05/17 00:39:14;;;;;;;3.58;3.20;;;;;;;;;;12669919;23;20367;-84
2023/05/17 00:44:18;;;;;;;4.85;3.63;;;;;;;;;;12667422;23;20371;-85
2023/05/17 00:49:20;;;;;;;4.75;3.58;;;;;;;;;;12664450;23;20481;-85
2023/05/17 00:54:22;;;;;;;4.40;3.58;;;;;;;;;;12666060;23;20375;-85
2023/05/17 00:59:26;;;;;;;5.25;3.78;;;;;;;;;;12665517;23;20961;-85
2023/05/17 01:04:30;;;;;;;4.78;4.28;;;;;;;;;;12668140;23;20371;-85
2023/05/17 01:09:32;;;;;;;5.55;3.90;;;;;;;;;;12669015;23;20375;-84
2023/05/17 01:14:47;;;;;;;4.38;3.72;;;;;;;;;;12669483;23;20375;-83
2023/05/17 01:20:05;;;;;;;4.50;3.75;;;;;;;;;;12669859;23;20441;-82
2023/05/17 01:25:17;;;;;;;4.65;3.92;;;;;;;;;;12669311;23;20454;-84
2023/05/17 01:30:22;;;;;;;5.80;3.80;;;;;;;;;;12670048;23;20704;-84
2023/05/17 01:35:25;;;;;;;4.38;3.70;;;;;;;;;;12666268;23;20442;-85
2023/05/17 01:40:28;;;;;;;4.60;3.93;;;;;;;;;;12666904;23;20387;-84
2023/05/17 01:45:37;;;;;;;5.07;3.65;;;;;;;;;;12668496;23;20703;-85
2023/05/17 01:50:40;;;;;;;4.70;3.30;;;;;;;;;;12668473;23;20367;-85
2023/05/17 01:55:48;;;;;;;4.85;2.90;;;;;;;;;;12668641;23;20911;-84
2023/05/17 02:00:55;;;;;;;4.88;2.83;;;;;;;;;;12669415;23;20866;-85
2023/05/17 02:05:57;;;;;;;3.65;3.03;;;;;;;;;;12668721;23;20382;-84
2023/05/17 02:11:00;;;;;;;3.22;2.80;;;;;;;;;;12669316;23;20430;-84
2023/05/17 02:16:04;;;;;;;3.83;2.83;;;;;;;;;;12668705;23;20367;-85
2023/05/17 02:21:06;;;;;;;3.87;2.80;;;;;;;;;;12668388;23;20474;-85
2023/05/17 02:26:09;;;;;;;4.38;2.92;;;;;;;;;;12668311;23;20712;-84
2023/05/17 02:31:12;;;;;;;3.08;2.75;;;;;;;;;;12667237;23;20792;-84
2023/05/17 02:36:14;;;;;;;3.40;3.10;;;;;;;;;;12669004;23;20371;-82
2023/05/17 02:41:17;;;;;;;6.17;3.27;;;;;;;;;;12668524;23;20387;-82
2023/05/17 02:46:21;;;;;;;4.43;3.03;;;;;;;;;;12668916;23;20370;-85
2023/05/17 02:51:23;;;;;;;4.30;3.05;;;;;;;;;;12667641;23;20379;-85
2023/05/17 02:56:25;;;;;;;3.38;3.00;;;;;;;;;;12668194;23;20375;-83
2023/05/17 03:01:29;;;;;;;5.53;3.45;;;;;;;;;;12668312;23;20453;-85
2023/05/17 03:06:31;;;;;;;4.23;3.20;;;;;;;;;;12667706;23;20403;-85
2023/05/17 03:11:33;;;;;;;3.97;2.90;;;;;;;;;;12667381;23;20371;-84
2023/05/17 03:16:37;;;;;;;3.88;2.80;;;;;;;;;;12668474;23;20375;-84
2023/05/17 03:21:40;;;;;;;4.50;2.92;;;;;;;;;;12668376;23;20398;-85
2023/05/17 03:26:42;;;;;;;3.95;2.65;;;;;;;;;;12668764;23;20415;-85
2023/05/17 03:31:45;;;;;;;2.90;2.60;;;;;;;;;;12668103;23;20407;-85
2023/05/17 03:36:48;;;;;;;2.80;2.50;;;;;;;;;;12668452;23;20450;-85
2023/05/17 03:41:51;;;;;;;3.55;2.42;;;;;;;;;;12670963;23;20422;-85
2023/05/17 03:46:54;;;;;;;3.63;2.67;;;;;;;;;;12672088;23;20756;-85
2023/05/17 03:51:56;;;;;;;4.25;3.00;;;;;;;;;;12670811;23;20434;-85
2023/05/17 03:56:59;;;;;;;3.43;2.50;;;;;;;;;;12670921;23;20918;-84
2023/05/17 04:02:02;;;;;;;3.67;2.60;;;;;;;;;;12672386;23;20418;-85
2023/05/17 04:07:05;;;;;;;4.35;2.78;;;;;;;;;;12670603;23;20371;-84
2023/05/17 04:12:07;;;;;;;3.87;3.00;;;;;;;;;;12668980;23;20740;-85
2023/05/17 04:17:11;;;;;;;4.87;3.40;;;;;;;;;;12666792;23;20364;-85
2023/05/17 04:22:13;;;;;;;3.40;3.10;;;;;;;;;;12669891;23;20391;-85
2023/05/17 04:27:16;;;;;;;5.25;3.20;;;;;;;;;;12668847;23;20379;-85
2023/05/17 04:32:20;;;;;;;3.75;3.20;;;;;;;;;;12671406;23;20431;-85
2023/05/17 04:37:22;;;;;;;4.85;3.17;;;;;;;;;;12670153;23;20430;-84
2023/05/17 04:42:25;;;;;;;4.70;3.47;;;;;;;;;;12665743;23;20450;-85
2023/05/17 04:47:28;;;;;;;4.60;3.10;;;;;;;;;;12669122;23;20368;-85
2023/05/17 04:52:30;;;;;;;3.57;2.77;;;;;;;;;;12667891;23;20383;-85
2023/05/17 04:57:33;;;;;;;3.53;2.72;;;;;;;;;;12670246;23;20864;-85
2023/05/17 05:02:36;;;;;;;3.53;2.75;;;;;;;;;;12669046;23;20950;-84
2023/05/17 05:07:39;;;;;;;3.70;3.13;;;;;;;;;;12668557;23;20375;-82
2023/05/17 05:12:41;;;;;;;3.70;3.00;;;;;;;;;;12667697;23;20902;-84
2023/05/17 05:17:44;;;;;;;3.60;3.10;;;;;;;;;;12666406;23;20852;-83
2023/05/17 05:22:47;;;;;;;4.78;3.15;;;;;;;;;;12664083;23;20387;-82
2023/05/17 05:27:49;;;;;;;4.33;3.23;;;;;;;;;;12662087;23;20835;-84
2023/05/17 05:32:53;;;;;;;5.70;3.20;;;;;;;;;;12666538;23;20371;-85
2023/05/17 05:37:55;;;;;;;4.90;2.63;;;;;;;;;;12663518;23;20760;-83
2023/05/17 05:42:57;;;;;;;5.17;2.60;;;;;;;;;;12667099;23;20406;-83
2023/05/17 05:48:02;;;;;;;3.53;2.70;;;;;;;;;;12666952;23;20407;-83
2023/05/17 05:53:05;;;;;;;5.80;2.90;;;;;;;;;;12665179;23;20371;-83
2023/05/17 05:58:07;;;;;;;5.27;3.37;;;;;;;;;;12667308;23;20363;-84
2023/05/17 06:03:11;;;;;;;3.25;2.47;;;;;;;;;;12668138;23;20450;-82
2023/05/17 06:08:13;;;;;;;3.00;2.57;;;;;;;;;;12650166;23;20414;-80
2023/05/17 06:13:15;;;;;;;5.20;2.60;;;;;;;;;;12658655;23;20372;-81
2023/05/17 06:18:19;;;;;;;5.32;3.20;;;;;;;;;;12663840;23;20407;-82
2023/05/17 06:23:21;;;;;;;4.47;3.20;;;;;;;;;;12663012;23;20394;-81
2023/05/17 06:28:23;;;;;;;4.90;3.33;;;;;;;;;;12663157;23;20383;-81
2023/05/17 06:33:27;;;;;;;5.03;3.30;;;;;;;;;;12664323;23;20382;-82
2023/05/17 06:38:29;;;;;;;5.75;3.53;;;;;;;;;;12662461;23;20367;-82
2023/05/17 06:43:31;;;;;;;4.80;3.37;;;;;;;;;;12663116;23;20469;-82
2023/05/17 06:48:35;;;;;;;6.53;4.18;;;;;;;;;;12663798;23;20437;-82
2023/05/17 06:53:37;;;;;;;5.13;3.75;;;;;;;;;;12661231;23;20438;-81
2023/05/17 06:58:39;;;;;;;4.35;3.67;;;;;;;;;;12661143;23;20375;-82
2023/05/17 07:03:43;;;;;;;4.55;3.63;;;;;;;;;;12662983;23;20442;-83
2023/05/17 07:08:46;;;;;;;3.70;3.25;;;;;;;;;;12660771;23;20371;-82
2023/05/17 07:13:49;;;;;;;5.13;2.90;;;;;;;;;;12665849;23;20371;-82
2023/05/17 07:18:52;;;;;;;12.73;3.93;;;;;;;;;;12664553;23;20371;-82
2023/05/17 07:23:55;;;;;;;9.47;4.53;;;;;;;;;;12666704;23;20395;-82
2023/05/17 07:28:57;;;;;;;7.07;4.60;;;;;;;;;;12666780;23;20410;-83
2023/05/17 07:34:00;;;;;;;6.10;3.72;;;;;;;;;;12666209;23;20406;-82
2023/05/17 07:39:04;;;;;;;15.02;5.05;;;;;;;;;;12665221;23;20430;-82
2023/05/17 07:44:06;;;;;;;8.13;3.70;;;;;;;;;;12665155;23;20398;-82
2023/05/17 07:49:09;;;;;;;6.87;3.40;;;;;;;;;;12666176;23;20415;-82
2023/05/17 07:54:22;;;;;;;4.82;3.60;;;;;;;;;;12666517;23;20367;-82
2023/05/17 07:59:24;;;;;;;13.55;4.75;;;;;;;;;;12665321;23;20434;-82
2023/05/17 08:04:28;;;;;;;6.40;3.85;;;;;;;;;;12663925;23;20390;-82
2023/05/17 08:09:30;;;;;;;4.97;3.63;;;;;;;;;;12661412;23;20919;-82
2023/05/17 08:14:32;;;;;;;4.05;2.80;;;;;;;;;;12665137;23;20461;-83
2023/05/17 08:19:37;;;;;;;5.53;3.33;;;;;;;;;;12667600;23;20847;-83
2023/05/17 08:24:39;;;;;;;4.95;3.28;;;;;;;;;;12664865;23;20813;-83
2023/05/17 08:29:42;;;;;;;2.90;1.90;;;;;;;;;;12665830;23;20450;-84
2023/05/17 08:34:46;;;;;;;3.90;2.03;;;;;;;;;;12667728;23;20902;-84
2023/05/17 08:39:50;;;;;;;3.93;2.00;;;;;;;;;;12662590;23;20789;-82
2023/05/17 08:44:53;;;;;;;2.28;1.40;;;;;;;;;;12664239;23;20395;-82
2023/05/17 08:49:59;;;;;;;1.50;1.40;;;;;;;;;;12664347;23;20367;-83
2023/05/17 08:55:03;;;;;;;3.03;2.17;;;;;;;;;;12662625;23;20371;-83
2023/05/17 09:00:11;;;;;;;4.43;2.20;;;;;;;;;;12663626;23;20371;-83
2023/05/17 09:05:15;;;;;;;4.22;1.95;;;;;;;;;;12663420;23;20394;-82
2023/05/17 09:10:17;;;;;;;2.50;1.67;;;;;;;;;;12662580;23;20375;-82
2023/05/17 09:15:22;;;;;;;2.90;1.50;;;;;;;;;;12663059;23;20382;-83
2023/05/17 09:20:33;;;;;;;1.95;1.08;;;;;;;;;;12662572;23;20371;-82
2023/05/17 09:25:35;;;;;;;0.82;0.70;;;;;;;;;;12662444;23;20461;-82
2023/05/17 09:30:40;;;;;;;2.45;0.60;;;;;;;;;;12662139;23;20433;-82
2023/05/17 09:35:44;;;;;;;1.88;0.80;;;;;;;;;;12663380;23;20371;-82
2023/05/17 09:40:48;;;;;;;1.00;0.50;;;;;;;;;;12662458;23;21061;-84
2023/05/17 09:45:56;;;;;;;1.52;0.80;;;;;;;;;;12662353;23;20467;-83
2023/05/17 09:51:00;;;;;;;1.73;1.15;;;;;;;;;;12662673;23;21013;-84
2023/05/17 09:56:06;;;;;;;1.20;0.87;;;;;;;;;;12662296;23;20426;-84
2023/05/17 10:01:10;;;;;;;1.50;0.40;;;;;;;;;;12661552;23;20402;-84
2023/05/17 10:06:14;;;;;;;0.60;0.30;;;;;;;;;;12663192;23;20462;-84
2023/05/17 10:11:21;;;;;;;0.20;0.20;;;;;;;;;;12661376;23;20371;-84
2023/05/17 10:16:25;;;;;;;0.30;0.20;;;;;;;;;;12662755;23;20426;-84
2023/05/17 10:21:30;;;;;;;0.80;0.10;;;;;;;;;;12662108;23;20367;-84
2023/05/17 10:26:34;;;;;;;1.25;0.20;;;;;;;;;;12662038;23;20422;-84
2023/05/17 10:31:37;;;;;;;0.40;0.10;;;;;;;;;;12659099;23;20477;-83
2023/05/17 10:36:43;;;;;;;0.35;0.20;;;;;;;;;;12661426;23;20371;-84
2023/05/17 10:41:47;;;;;;;1.80;0.35;;;;;;;;;;12662108;23;20438;-84
2023/05/17 10:46:55;;;;;;;0.28;0.28;;;;;;;;;;12664110;23;20388;-83
2023/05/17 10:51:59;;;;;;;0.50;0.30;;;;;;;;;;12665700;23;20449;-84
2023/05/17 10:57:05;;;;;;;0.20;0.20;;;;;;;;;;12666838;23;20375;-84
2023/05/17 11:02:08;;;;;;;0.50;0.30;;;;;;;;;;12665727;23;20371;-83
2023/05/17 11:07:24;;;;;;;1.30;0.30;;;;;;;;;;12665260;23;20747;-83
2023/05/17 11:12:32;;;;;;;0.40;0.40;;;;;;;;;;12666136;23;20367;-82
2023/05/17 11:17:36;;;;;;;1.10;0.20;;;;;;;;;;12660688;23;20383;-82
2023/05/17 11:22:41;;;;;;;0.40;0.30;;;;;;;;;;12656078;23;20387;-83
2023/05/17 11:27:45;;;;;;;0.47;0.30;;;;;;;;;;12657328;23;20422;-83
2023/05/17 11:32:50;;;;;;;0.82;0.30;;;;;;;;;;12655196;23;21042;-82
2023/05/17 11:37:54;;;;;;;0.40;0.30;;;;;;;;;;12656830;23;20384;-82
2023/05/17 11:43:15;;;;;;;0.70;0.70;;;;;;;;;;12660438;23;20427;-83
2023/05/17 11:48:19;;;;;;;0.50;0.40;;;;;;;;;;12658787;23;20383;-83
2023/05/17 11:53:24;;;;;;;0.73;0.50;;;;;;;;;;12659731;23;20442;-82
2023/05/17 11:58:28;;;;;;;1.02;0.70;;;;;;;;;;12665203;23;20379;-82
2023/05/17 12:03:31;;;;;;;1.80;1.00;;;;;;;;;;12666348;23;20398;-84
2023/05/17 12:08:38;;;;;;;1.20;1.05;;;;;;;;;;12665671;23;20445;-82
2023/05/17 12:13:41;;;;;;;1.10;1.00;;;;;;;;;;12667870;23;20828;-83
2023/05/17 12:18:44;;;;;;;4.93;1.17;;;;;;;;;;12665101;23;20367;-84
2023/05/17 12:23:51;;;;;;;1.80;1.08;;;;;;;;;;12664900;23;20391;-84
2023/05/17 12:28:56;;;;;;;2.60;1.05;;;;;;;;;;12660360;23;20406;-83
2023/05/17 12:34:00;;;;;;;2.45;0.70;;;;;;;;;;12658885;23;20438;-83
2023/05/17 12:39:08;;;;;;;0.90;0.40;;;;;;;;;;12658715;23;20438;-83
2023/05/17 12:44:14;;;;;;;1.10;0.53;;;;;;;;;;12661017;23;20454;-83
2023/05/17 12:49:16;;;;;;;0.95;0.50;;;;;;;;;;12660787;23;20371;-92
2023/05/17 12:54:29;;;;;;;0.70;0.63;;;;;;;;;;12660503;23;20433;-84
2023/05/17 12:59:35;;;;;;;1.15;0.30;;;;;;;;;;12658434;23;20748;-81
2023/05/17 13:04:37;;;;;;;0.60;0.30;;;;;;;;;;12658550;23;20449;-83
2023/05/17 13:09:47;;;;;;;1.67;0.28;;;;;;;;;;12659029;23;20387;-81
2023/05/17 13:14:51;;;;;;;0.30;0.20;;;;;;;;;;12660718;23;20438;-81
2023/05/17 13:19:55;;;;;;;0.30;0.20;;;;;;;;;;12657474;23;20438;-81
2023/05/17 13:24:59;;;;;;;0.40;0.22;;;;;;;;;;12663486;23;20962;-83
2023/05/17 13:30:01;;;;;;;0.90;0.30;;;;;;;;;;12663360;23;20848;-84
2023/05/17 13:35:04;;;;;;;0.38;0.25;;;;;;;;;;12667605;23;20430;-84
2023/05/17 13:40:12;;;;;;;0.50;0.20;;;;;;;;;;12666700;23;20426;-83
2023/05/17 13:45:14;;;;;;;0.20;0.20;;;;;;;;;;12664650;23;20402;-83
2023/05/17 13:50:17;;;;;;;0.20;0.13;;;;;;;;;;12667038;23;20434;-84
2023/05/17 13:55:20;;;;;;;0.32;0.20;;;;;;;;;;12667699;23;20374;-84
2023/05/17 14:00:23;;;;;;;0.55;0.30;;;;;;;;;;12667696;23;20430;-84
2023/05/17 14:05:25;;;;;;;1.30;0.50;;;;;;;;;;12666947;23;20867;-84
2023/05/17 14:10:29;;;;;;;0.37;0.33;;;;;;;;;;12667663;23;20775;-82
2023/05/17 14:15:36;;;;;;;1.50;0.40;;;;;;;;;;12666810;23;20375;-84
2023/05/17 14:20:38;;;;;;;0.38;0.30;;;;;;;;;;12666282;23;20363;-83
2023/05/17 14:25:43;;;;;;;0.77;0.40;;;;;;;;;;12660336;23;20391;-83
2023/05/17 14:30:46;;;;;;;0.68;0.30;;;;;;;;;;12646510;23;20387;-83
2023/05/17 14:35:48;;;;;;;1.23;0.30;;;;;;;;;;12655923;23;20445;-82
2023/05/17 14:40:51;;;;;;;1.02;0.30;;;;;;;;;;12656441;23;20461;-82
2023/05/17 14:45:54;;;;;;;0.70;0.20;;;;;;;;;;12657997;23;20453;-83
2023/05/17 14:50:56;;;;;;;2.63;0.30;;;;;;;;;;12658059;23;20693;-83
2023/05/17 14:56:00;;;;;;;1.80;0.53;;;;;;;;;;12656366;23;20379;-82
2023/05/17 15:01:03;;;;;;;1.27;0.30;;;;;;;;;;12651600;23;20891;-83
2023/05/17 15:06:05;;;;;;;1.00;0.55;;;;;;;;;;12655526;23;20398;-83
2023/05/17 15:11:09;;;;;;;0.95;0.60;;;;;;;;;;12655451;23;20383;-84
2023/05/17 15:16:12;;;;;;;0.40;0.40;;;;;;;;;;12653391;23;20420;-83
2023/05/17 15:21:16;;;;;;;0.30;0.20;;;;;;;;;;12655085;23;20386;-83
2023/05/17 15:26:20;;;;;;;0.40;0.40;;;;;;;;;;12655555;23;20852;-83
2023/05/17 15:31:23;;;;;;;0.68;0.30;;;;;;;;;;12655481;23;20391;-83
2023/05/17 15:36:25;;;;;;;0.70;0.32;;;;;;;;;;12662076;23;20689;-83
2023/05/17 15:41:31;;;;;;;0.20;0.20;;;;;;;;;;12659330;23;20923;-83
2023/05/17 15:46:33;;;;;;;1.30;0.30;;;;;;;;;;12660438;23;20757;-84
2023/05/17 15:51:35;;;;;;;0.23;0.20;;;;;;;;;;12659301;23;20372;-83
2023/05/17 15:56:39;;;;;;;0.52;0.30;;;;;;;;;;12657492;23;20387;-83
2023/05/17 16:01:44;;;;;;;1.08;0.30;;;;;;;;;;12657159;23;20387;-83
2023/05/17 16:06:47;;;;;;;0.20;0.20;;;;;;;;;;12657827;23;20844;-83
2023/05/17 16:11:50;;;;;;;0.65;0.30;;;;;;;;;;12657602;23;20846;-83
2023/05/17 16:16:52;;;;;;;1.70;0.40;;;;;;;;;;12658396;23;20387;-82
2023/05/17 16:21:56;;;;;;;0.50;0.40;;;;;;;;;;12657431;23;20441;-85
2023/05/17 16:27:00;;;;;;;0.33;0.33;;;;;;;;;;12658695;23;20399;-83
2023/05/17 16:32:03;;;;;;;1.05;0.40;;;;;;;;;;12661162;23;20442;-84
2023/05/17 16:37:05;;;;;;;1.00;0.40;;;;;;;;;;12659199;23;20383;-83
2023/05/17 16:42:09;;;;;;;1.48;0.32;;;;;;;;;;12659876;23;20441;-84
2023/05/17 16:47:11;;;;;;;0.20;0.20;;;;;;;;;;12659973;23;20399;-84
2023/05/17 16:52:14;;;;;;;0.95;0.40;;;;;;;;;;12659256;23;20375;-83
2023/05/17 16:57:17;;;;;;;0.88;0.43;;;;;;;;;;12656870;23;20419;-83
2023/05/17 17:02:19;;;;;;;0.90;0.28;;;;;;;;;;12653014;23;20619;-83
2023/05/17 17:07:22;;;;;;;1.00;0.40;;;;;;;;;;12649797;23;21030;-82
2023/05/17 17:12:25;;;;;;;0.80;0.50;;;;;;;;;;12651420;23;20463;-84
2023/05/17 17:17:29;;;;;;;2.10;0.60;;;;;;;;;;12652968;23;20383;-84
2023/05/17 17:22:31;;;;;;;0.77;0.40;;;;;;;;;;12654270;23;20383;-85
2023/05/17 17:27:35;;;;;;;1.30;0.63;;;;;;;;;;12654136;23;20868;-83
2023/05/17 17:32:37;;;;;;;1.55;0.60;;;;;;;;;;12655313;23;20450;-84
2023/05/17 17:37:39;;;;;;;0.60;0.50;;;;;;;;;;12653250;23;20387;-83
2023/05/17 17:42:43;;;;;;;1.10;0.80;;;;;;;;;;12651587;23;20938;-84
2023/05/17 17:47:45;;;;;;;1.50;0.80;;;;;;;;;;12654211;23;20395;-84
2023/05/17 17:52:48;;;;;;;2.03;0.90;;;;;;;;;;12653990;23;20818;-84
2023/05/17 17:57:51;;;;;;;4.50;1.40;;;;;;;;;;12654746;23;20915;-85
2023/05/17 18:02:55;;;;;;;2.50;1.50;;;;;;;;;;12653662;23;21313;-87
2023/05/17 18:07:57;;;;;;;3.03;1.80;;;;;;;;;;12653156;23;20418;-84
2023/05/17 18:13:01;;;;;;;1.77;1.60;;;;;;;;;;12653531;23;20419;-84
2023/05/17 18:18:03;;;;;;;5.10;2.42;;;;;;;;;;12653849;23;20387;-83
2023/05/17 18:23:05;;;;;;;4.65;3.22;;;;;;;;;;12652483;23;20387;-82
2023/05/17 18:28:09;;;;;;;5.30;2.88;;;;;;;;;;12654244;23;20395;-83
2023/05/17 18:33:13;;;;;;;3.28;2.55;;;;;;;;;;12655141;23;20445;-83
2023/05/17 18:38:15;;;;;;;5.85;3.13;;;;;;;;;;12651827;23;20414;-84
2023/05/17 18:43:19;;;;;;;5.97;3.30;;;;;;;;;;12651321;23;20453;-82
2023/05/17 18:48:22;;;;;;;6.93;3.40;;;;;;;;;;12644296;23;20387;-82
2023/05/17 18:53:25;;;;;;;5.15;2.95;;;;;;;;;;12648394;23;21262;-82
2023/05/17 18:58:29;;;;;;;1.93;1.60;;;;;;;;;;12647104;23;20458;-83
2023/05/17 19:03:31;;;;;;;3.45;2.00;;;;;;;;;;12647824;23;20758;-83
2023/05/17 19:08:33;;;;;;;2.50;1.70;;;;;;;;;;12648073;23;20485;-82
2023/05/17 19:13:37;;;;;;;2.30;1.80;;;;;;;;;;12650918;23;20716;-83
2023/05/17 19:18:39;;;;;;;3.08;2.25;;;;;;;;;;12650246;23;20457;-83
2023/05/17 19:23:41;;;;;;;4.70;2.50;;;;;;;;;;12649585;23;20383;-83
2023/05/17 19:28:45;;;;;;;4.00;2.10;;;;;;;;;;12650376;23;20398;-82
2023/05/17 19:33:48;;;;;;;3.13;2.33;;;;;;;;;;12649745;23;20422;-83
2023/05/17 19:38:50;;;;;;;3.43;2.00;;;;;;;;;;12644489;23;20391;-83
2023/05/17 19:43:55;;;;;;;3.35;2.17;;;;;;;;;;12650105;23;20712;-82
2023/05/17 19:48:57;;;;;;;4.23;2.43;;;;;;;;;;12649453;23;20387;-85
2023/05/17 19:54:00;;;;;;;4.53;2.67;;;;;;;;;;12649732;23;20418;-84
2023/05/17 19:59:04;;;;;;;3.95;3.10;;;;;;;;;;12650833;23;20656;-83
2023/05/17 20:04:06;;;;;;;4.05;2.72;;;;;;;;;;12650066;23;20387;-82
2023/05/17 20:09:09;;;;;;;5.07;2.63;;;;;;;;;;12649624;23;20402;-83
2023/05/17 20:14:14;;;;;;;5.75;2.63;;;;;;;;;;12652770;23;20780;-84
2023/05/17 20:19:18;;;;;;;4.75;3.20;;;;;;;;;;12653991;23;20430;-84
2023/05/17 20:24:23;;;;;;;2.90;2.30;;;;;;;;;;12654307;23;20720;-85
2023/05/17 20:29:27;;;;;;;3.77;2.40;;;;;;;;;;12655839;23;20423;-84
2023/05/17 20:34:29;;;;;;;3.33;2.67;;;;;;;;;;12655579;23;20406;-83
2023/05/17 20:39:32;;;;;;;3.40;2.50;;;;;;;;;;12654213;23;20391;-85
2023/05/17 20:44:36;;;;;;;3.22;2.45;;;;;;;;;;12656560;23;20383;-85
2023/05/17 20:49:38;;;;;;;3.80;2.70;;;;;;;;;;12654115;23;20705;-85
2023/05/17 20:54:40;;;;;;;5.03;2.67;;;;;;;;;;12655552;23;20383;-85
2023/05/17 20:59:44;;;;;;;4.22;3.20;;;;;;;;;;12655961;23;20390;-84
2023/05/17 21:04:46;;;;;;;4.05;3.03;;;;;;;;;;12655947;23;20418;-85
2023/05/17 21:09:48;;;;;;;4.60;2.80;;;;;;;;;;12654643;23;20468;-84
2023/05/17 21:14:52;;;;;;;3.47;2.60;;;;;;;;;;12655955;23;20419;-86
2023/05/17 21:19:54;;;;;;;3.23;2.67;;;;;;;;;;12654432;23;20466;-85
2023/05/17 21:24:57;;;;;;;2.72;2.40;;;;;;;;;;12654088;23;20720;-84
2023/05/17 21:30:00;;;;;;;2.92;2.13;;;;;;;;;;12654299;23;20399;-84
2023/05/17 21:35:03;;;;;;;3.75;1.95;;;;;;;;;;12653077;23;20997;-86
2023/05/17 21:40:07;;;;;;;3.05;1.80;;;;;;;;;;12654573;23;20383;-84
2023/05/17 21:45:11;;;;;;;2.83;1.50;;;;;;;;;;12660428;23;20438;-87
2023/05/17 21:50:14;;;;;;;2.53;1.30;;;;;;;;;;12667031;23;20482;-85
2023/05/17 21:55:17;;;;;;;5.03;1.30;;;;;;;;;;12667178;23;20372;-85
2023/05/17 22:00:20;;;;;;;2.38;0.70;;;;;;;;;;12666651;23;20855;-85
2023/05/17 22:05:23;;;;;;;1.13;0.50;;;;;;;;;;12666867;23;20367;-87
2023/05/17 22:10:25;;;;;;;0.75;0.63;;;;;;;;;;12664850;23;20375;-85
2023/05/17 22:15:29;;;;;;;1.83;0.70;;;;;;;;;;12668372;23;20371;-85
2023/05/17 22:20:31;;;;;;;1.88;0.80;;;;;;;;;;12665542;23;20410;-87
2023/05/17 22:25:35;;;;;;;1.30;0.60;;;;;;;;;;12668290;23;20426;-87
2023/05/17 22:30:39;;;;;;;1.00;0.50;;;;;;;;;;12687279;23;20378;-84
2023/05/17 22:35:41;;;;;;;0.75;0.50;;;;;;;;;;12666517;23;20445;-87
2023/05/17 22:40:43;;;;;;;1.05;0.55;;;;;;;;;;12666880;23;20840;-86
2023/05/17 22:45:48;;;;;;;5.60;0.80;;;;;;;;;;12666393;23;20712;-84
2023/05/17 22:50:53;;;;;;;2.00;0.80;;;;;;;;;;12664838;23;20681;-85
2023/05/17 22:55:56;;;;;;;1.73;0.60;;;;;;;;;;12664193;23;20696;-85
2023/05/17 23:00:59;;;;;;;4.30;0.50;;;;;;;;;;12667337;23;20398;-85
2023/05/17 23:06:02;;;;;;;1.70;0.60;;;;;;;;;;12670216;23;20446;-90
2023/05/17 23:11:04;;;;;;;1.15;0.50;;;;;;;;;;12690088;23;20398;-88
2023/05/17 23:16:08;;;;;;;1.90;0.70;;;;;;;;;;12671929;23;20367;-88
2023/05/17 23:21:10;;;;;;;3.13;0.52;;;;;;;;;;12671879;23;20410;-88
2023/05/17 23:26:13;;;;;;;2.08;0.50;;;;;;;;;;12672936;23;20383;-88
2023/05/17 23:31:17;;;;;;;1.70;0.50;;;;;;;;;;12671694;23;20910;-88
2023/05/17 23:36:20;;;;;;;0.75;0.50;;;;;;;;;;12672986;23;20755;-88
2023/05/17 23:41:24;;;;;;;0.75;0.52;;;;;;;;;;12673288;23;20371;-88
2023/05/17 23:46:27;;;;;;;1.58;0.60;;;;;;;;;;12673445;23;20752;-88
2023/05/17 23:51:32;;;;;;;0.90;0.68;;;;;;;;;;12673669;23;20426;-88
2023/05/17 23:56:34;;;;;;;2.90;0.90;;;;;;;;;;12676639;23;20371;-88
